Time;durP1;ratioP1;P1;durP2;ratioP2;P2;SDS_P1;SDS_P2;PMS_P1;PMS_P2;Temp;Humidity;BMP_temperature;BMP_pressure;BME280_temperature;BME280_humidity;BME280_pressure;Samples;Min_cycle;Max_cycle;Signal;HPM_P1;HPM_P2
2022/09/04 00:02:30;;;;;;;3.60;1.80;;;17.30;60.40;;;;;;5009257;28;20061;-71
2022/09/04 00:05:24;;;;;;;2.30;1.65;;;17.30;60.10;;;;;;5008929;28;20414;-71
2022/09/04 00:08:05;;;;;;;4.33;1.53;;;17.20;59.90;;;;;;5009012;28;20042;-73
2022/09/04 00:10:35;;;;;;;3.03;1.73;;;17.20;59.60;;;;;;5009285;28;20277;-72
2022/09/04 00:13:16;;;;;;;6.70;1.40;;;17.20;59.40;;;;;;5009016;28;20053;-72
2022/09/04 00:16:14;;;;;;;4.18;2.10;;;17.20;59.20;;;;;;5008931;28;20124;-73
2022/09/04 00:19:01;;;;;;;4.30;1.63;;;17.20;59.20;;;;;;5009809;28;20083;-72
2022/09/04 00:21:38;;;;;;;4.35;1.50;;;17.10;58.70;;;;;;5008876;28;20056;-73
2022/09/04 00:24:10;;;;;;;2.72;1.35;;;17.20;58.80;;;;;;5008746;28;20053;-73
2022/09/04 00:26:53;;;;;;;4.80;1.70;;;17.10;58.60;;;;;;5008925;28;20053;-73
2022/09/04 00:29:43;;;;;;;3.45;1.83;;;17.20;58.80;;;;;;5008777;28;20501;-74
2022/09/04 00:32:30;;;;;;;4.00;2.00;;;17.10;58.50;;;;;;5008716;28;20042;-74
2022/09/04 00:35:17;;;;;;;3.42;2.00;;;17.00;58.50;;;;;;5008598;28;20057;-73
2022/09/04 00:38:03;;;;;;;6.68;1.70;;;17.00;58.70;;;;;;5012423;28;20432;-75
2022/09/04 00:40:42;;;;;;;3.13;1.58;;;17.00;58.80;;;;;;5012121;28;20038;-74
2022/09/04 00:43:19;;;;;;;2.80;1.75;;;17.00;58.70;;;;;;5012054;28;20508;-74
2022/09/04 00:46:11;;;;;;;3.13;1.40;;;17.00;58.70;;;;;;5012030;28;20073;-74
2022/09/04 00:49:01;;;;;;;1.83;1.30;;;17.00;58.60;;;;;;4995670;28;20038;-74
2022/09/04 00:51:45;;;;;;;5.20;1.60;;;17.00;58.70;;;;;;5012047;28;20076;-74
2022/09/04 00:54:42;;;;;;;3.67;1.80;;;16.90;58.70;;;;;;5011966;28;20066;-73
2022/09/04 00:57:46;;;;;;;2.92;1.50;;;16.90;58.80;;;;;;5012172;28;20401;-73
2022/09/04 01:00:19;;;;;;;7.22;1.55;;;16.90;58.80;;;;;;5011970;28;20046;-74
2022/09/04 01:03:00;;;;;;;4.30;1.63;;;17.00;58.80;;;;;;5012020;28;20045;-73
2022/09/04 01:05:58;;;;;;;4.05;2.20;;;16.90;58.70;;;;;;5012069;28;20042;-72
2022/09/04 01:09:01;;;;;;;2.67;2.08;;;17.00;58.70;;;;;;5011742;28;20046;-73
2022/09/04 01:11:55;;;;;;;3.63;1.90;;;16.90;58.80;;;;;;5011674;28;20074;-74
2022/09/04 01:15:13;;;;;;;5.07;2.10;;;16.90;58.80;;;;;;5011646;28;20054;-74
2022/09/04 01:18:16;;;;;;;4.05;1.70;;;16.90;59.00;;;;;;5027521;28;20057;-74
2022/09/04 01:21:18;;;;;;;4.95;2.25;;;16.80;59.00;;;;;;5011498;28;20088;-74
2022/09/04 01:24:28;;;;;;;5.63;1.88;;;16.80;59.10;;;;;;5011422;28;20034;-75
2022/09/04 01:27:04;;;;;;;3.30;1.60;;;16.80;59.30;;;;;;5011472;28;20081;-73
2022/09/04 01:29:52;;;;;;;5.80;1.95;;;16.90;59.30;;;;;;5011284;28;20050;-74
2022/09/04 01:32:43;;;;;;;1.92;1.73;;;16.80;59.40;;;;;;5011633;28;20042;-74
2022/09/04 01:35:15;;;;;;;2.35;1.60;;;16.80;59.20;;;;;;5011960;28;20054;-73
2022/09/04 01:38:04;;;;;;;3.47;1.70;;;16.80;59.40;;;;;;5011329;28;20522;-72
2022/09/04 01:41:10;;;;;;;3.35;1.90;;;16.80;60.00;;;;;;5011258;28;20121;-72
2022/09/04 01:43:36;;;;;;;2.25;1.77;;;16.70;59.90;;;;;;5036313;28;20532;-71
2022/09/04 01:46:17;;;;;;;2.42;1.70;;;16.70;60.00;;;;;;5014992;28;20132;-71
2022/09/04 01:49:04;;;;;;;5.97;2.10;;;16.70;60.10;;;;;;5009703;28;20091;-71
2022/09/04 01:51:53;;;;;;;2.90;1.90;;;16.60;60.50;;;;;;5011081;28;20050;-71
2022/09/04 01:54:34;;;;;;;4.40;1.80;;;16.60;60.40;;;;;;4994723;28;20080;-71
2022/09/04 01:57:22;;;;;;;2.47;1.75;;;16.60;60.70;;;;;;5011034;28;20394;-71
2022/09/04 02:00:09;;;;;;;4.13;1.75;;;16.60;60.70;;;;;;5011175;28;20371;-71
2022/09/04 02:02:53;;;;;;;2.75;1.70;;;16.60;61.00;;;;;;5011247;28;20053;-72
2022/09/04 02:05:37;;;;;;;3.40;2.22;;;16.50;61.00;;;;;;5010951;28;20046;-72
2022/09/04 02:08:10;;;;;;;5.03;1.90;;;16.50;61.40;;;;;;5011227;28;20042;-71
2022/09/04 02:10:40;;;;;;;2.45;1.50;;;16.40;61.20;;;;;;5010702;28;20042;-71
2022/09/04 02:13:44;;;;;;;2.80;1.75;;;16.40;61.40;;;;;;4994723;28;20072;-72
2022/09/04 02:16:25;;;;;;;3.95;1.92;;;16.40;61.80;;;;;;5010722;28;20046;-71
2022/09/04 02:19:11;;;;;;;2.40;2.00;;;16.40;61.90;;;;;;5010575;28;20046;-71
2022/09/04 02:22:02;;;;;;;3.75;1.90;;;16.40;61.50;;;;;;5010620;28;20053;-72
2022/09/04 02:24:47;;;;;;;5.85;2.00;;;16.40;61.50;;;;;;5010534;28;20042;-72
2022/09/04 02:27:38;;;;;;;4.13;1.83;;;16.40;61.60;;;;;;5010533;28;20042;-71
2022/09/04 02:30:12;;;;;;;6.25;2.58;;;16.30;62.50;;;;;;5010666;28;20041;-72
2022/09/04 02:32:47;;;;;;;3.58;1.90;;;16.30;62.20;;;;;;5010740;28;20045;-70
2022/09/04 02:35:22;;;;;;;3.40;2.03;;;16.20;62.30;;;;;;5010407;28;20128;-71
2022/09/04 02:38:03;;;;;;;2.15;1.40;;;16.20;62.40;;;;;;5010416;28;20073;-71
2022/09/04 02:40:51;;;;;;;7.03;2.22;;;16.20;62.50;;;;;;5010480;28;20088;-71
2022/09/04 02:43:51;;;;;;;5.90;1.77;;;16.10;62.30;;;;;;5010476;28;20515;-70
2022/09/04 02:46:43;;;;;;;4.93;2.00;;;16.20;62.50;;;;;;5010448;28;20045;-71
2022/09/04 02:49:23;;;;;;;4.63;2.50;;;16.20;62.30;;;;;;5010428;28;20041;-71
2022/09/04 02:52:11;;;;;;;3.05;2.22;;;16.20;62.10;;;;;;5010456;28;20046;-71
2022/09/04 02:55:13;;;;;;;4.53;1.98;;;16.10;62.30;;;;;;5010424;28;20456;-70
2022/09/04 02:57:53;;;;;;;6.07;2.20;;;16.10;62.20;;;;;;5010155;28;20052;-72
2022/09/04 03:00:40;;;;;;;5.53;2.30;;;16.10;62.20;;;;;;5009503;28;20038;-71
2022/09/04 03:03:18;;;;;;;4.18;1.63;;;16.10;62.20;;;;;;5009957;28;20053;-71
2022/09/04 03:05:50;;;;;;;4.85;2.25;;;16.10;62.00;;;;;;5010002;28;20050;-71
2022/09/04 03:08:52;;;;;;;4.35;2.15;;;16.10;62.10;;;;;;5009895;28;20080;-71
2022/09/04 03:11:37;;;;;;;3.50;1.98;;;16.00;62.50;;;;;;5013272;28;20061;-71
2022/09/04 03:14:17;;;;;;;3.75;2.13;;;16.00;62.10;;;;;;5009783;28;20446;-72
2022/09/04 03:16:49;;;;;;;3.45;2.00;;;16.00;62.20;;;;;;5009801;28;20085;-70
2022/09/04 03:19:18;;;;;;;3.42;1.95;;;16.00;62.10;;;;;;5009976;28;20352;-73
2022/09/04 03:22:19;;;;;;;3.45;1.98;;;16.00;62.30;;;;;;5010946;28;20049;-72
2022/09/04 03:25:05;;;;;;;3.60;2.40;;;16.00;62.20;;;;;;5032364;28;20050;-73
2022/09/04 03:27:33;;;;;;;3.55;2.20;;;16.00;62.60;;;;;;5009676;28;20053;-73
2022/09/04 03:30:07;;;;;;;5.53;2.88;;;16.00;62.50;;;;;;5009842;28;20481;-72
2022/09/04 03:32:53;;;;;;;5.43;1.90;;;16.00;62.50;;;;;;5009584;28;20042;-72
2022/09/04 03:35:19;;;;;;;2.60;2.10;;;16.00;62.70;;;;;;5009406;28;20050;-72
2022/09/04 03:38:21;;;;;;;2.70;2.13;;;15.90;62.60;;;;;;5009496;28;20402;-72
2022/09/04 03:41:12;;;;;;;5.30;2.13;;;15.90;62.70;;;;;;5009271;28;20046;-72
2022/09/04 03:44:12;;;;;;;4.50;2.58;;;15.90;62.80;;;;;;5009525;28;20076;-72
2022/09/04 03:46:59;;;;;;;4.70;2.53;;;15.90;62.70;;;;;;5010027;28;20501;-71
2022/09/04 03:49:42;;;;;;;3.95;1.90;;;15.90;62.60;;;;;;5009538;28;20417;-72
2022/09/04 03:52:31;;;;;;;4.97;2.40;;;15.90;62.70;;;;;;5009295;28;20044;-72
2022/09/04 03:55:12;;;;;;;7.10;2.55;;;15.80;62.90;;;;;;5009271;28;20091;-72
2022/09/04 03:57:46;;;;;;;5.57;2.38;;;15.80;63.10;;;;;;5009233;28;20045;-72
2022/09/04 04:00:18;;;;;;;2.72;1.95;;;15.80;63.00;;;;;;5010303;28;20057;-72
2022/09/04 04:03:07;;;;;;;3.42;2.45;;;15.80;63.20;;;;;;5009311;28;20112;-73
2022/09/04 04:05:41;;;;;;;3.58;2.63;;;15.70;63.50;;;;;;5009026;28;20041;-72
2022/09/04 04:08:28;;;;;;;5.25;2.80;;;15.70;63.90;;;;;;5009000;28;20121;-72
2022/09/04 04:11:08;;;;;;;7.38;2.53;;;15.70;63.60;;;;;;5008261;28;20038;-73
2022/09/04 04:13:35;;;;;;;6.80;2.30;;;15.60;64.20;;;;;;5008997;28;20099;-72
2022/09/04 04:16:13;;;;;;;4.40;2.70;;;15.60;63.90;;;;;;5008990;28;20124;-72
2022/09/04 04:18:53;;;;;;;4.45;2.13;;;15.60;64.60;;;;;;5008831;28;20509;-74
2022/09/04 04:21:36;;;;;;;4.45;2.33;;;15.60;64.30;;;;;;5008876;28;20089;-73
2022/09/04 04:24:08;;;;;;;6.00;2.40;;;15.60;64.60;;;;;;5009006;28;20199;-72
2022/09/04 04:26:48;;;;;;;3.58;2.15;;;15.60;64.90;;;;;;5008871;28;20170;-72
2022/09/04 04:29:38;;;;;;;4.38;2.53;;;15.60;64.90;;;;;;5008762;28;20041;-72
2022/09/04 04:32:24;;;;;;;4.45;2.28;;;15.60;64.60;;;;;;5009069;28;20486;-72
2022/09/04 04:35:18;;;;;;;4.70;2.08;;;15.60;65.00;;;;;;5008718;28;20406;-72
2022/09/04 04:37:55;;;;;;;6.15;2.50;;;15.50;65.30;;;;;;5008691;28;20569;-73
2022/09/04 04:40:40;;;;;;;8.63;2.50;;;15.50;65.20;;;;;;5008613;28;20401;-72
2022/09/04 04:43:08;;;;;;;3.10;2.30;;;15.50;65.00;;;;;;5008777;28;20057;-72
2022/09/04 04:46:01;;;;;;;4.78;2.30;;;15.50;65.30;;;;;;5008856;28;20095;-72
2022/09/04 04:49:04;;;;;;;5.85;2.60;;;15.50;65.30;;;;;;5008388;28;20080;-72
2022/09/04 04:52:14;;;;;;;4.28;2.30;;;15.60;65.20;;;;;;5008590;28;20119;-72
2022/09/04 04:55:14;;;;;;;3.70;2.45;;;15.60;65.30;;;;;;5008565;28;20049;-73
2022/09/04 04:57:54;;;;;;;5.70;2.58;;;15.50;66.00;;;;;;5008560;28;20081;-72
2022/09/04 05:00:32;;;;;;;5.28;2.42;;;15.60;65.50;;;;;;4992242;28;20107;-73
2022/09/04 05:03:26;;;;;;;3.40;2.00;;;15.50;65.60;;;;;;5008382;28;20110;-72
2022/09/04 05:06:08;;;;;;;4.78;2.50;;;15.60;65.30;;;;;;5008438;28;20116;-72
2022/09/04 05:08:53;;;;;;;3.47;2.65;;;15.60;65.30;;;;;;5008247;28;20041;-73
2022/09/04 05:11:33;;;;;;;4.53;2.45;;;15.60;65.20;;;;;;5008379;28;20042;-73
2022/09/04 05:14:17;;;;;;;4.40;2.58;;;15.60;65.50;;;;;;5008313;28;20046;-72
2022/09/04 05:16:57;;;;;;;6.93;2.40;;;15.60;65.70;;;;;;5008561;28;20050;-72
2022/09/04 05:19:39;;;;;;;4.35;2.40;;;15.60;65.70;;;;;;5008223;28;20178;-72
2022/09/04 05:22:19;;;;;;;6.85;2.70;;;15.70;65.80;;;;;;5009257;28;20052;-73
2022/09/04 05:25:18;;;;;;;5.93;2.50;;;15.70;66.10;;;;;;5011452;28;20098;-71
2022/09/04 05:28:01;;;;;;;5.75;2.63;;;15.70;66.10;;;;;;5011788;28;20060;-73
2022/09/04 05:30:47;;;;;;;4.10;2.63;;;15.70;66.20;;;;;;5011534;28;20046;-72
2022/09/04 05:33:26;;;;;;;4.03;2.30;;;15.80;66.30;;;;;;5014824;28;20050;-72
2022/09/04 05:36:21;;;;;;;5.82;3.00;;;15.80;66.50;;;;;;5011186;28;20053;-72
2022/09/04 05:39:06;;;;;;;4.05;2.30;;;15.80;67.10;;;;;;5014696;28;20406;-72
2022/09/04 05:41:51;;;;;;;7.70;2.88;;;15.80;66.90;;;;;;5011536;28;20137;-72
2022/09/04 05:44:28;;;;;;;;;;;15.80;67.50;;;;;;4995270;28;20050;-73
2022/09/04 05:47:04;;;;;;;6.97;3.13;;;15.80;67.30;;;;;;5011099;28;19917;-73
2022/09/04 05:50:01;;;;;;;7.18;2.47;;;15.90;66.90;;;;;;5010996;28;20524;-73
2022/09/04 05:53:02;;;;;;;5.13;2.88;;;15.90;67.10;;;;;;5011122;28;20049;-72
2022/09/04 05:56:15;;;;;;;5.55;2.65;;;16.00;67.80;;;;;;5011333;28;20042;-72
2022/09/04 05:58:53;;;;;;;3.88;2.65;;;16.00;67.30;;;;;;5007976;28;20061;-72
2022/09/04 06:01:37;;;;;;;3.70;2.60;;;16.00;67.00;;;;;;5011058;28;20128;-73
2022/09/04 06:04:12;;;;;;;7.78;2.60;;;16.00;67.20;;;;;;5011001;28;20042;-73
2022/09/04 06:06:46;;;;;;;2.90;2.60;;;16.10;67.00;;;;;;5010913;28;20038;-72
2022/09/04 06:09:21;;;;;;;9.48;3.65;;;16.10;67.10;;;;;;5010804;28;20050;-72
2022/09/04 06:11:55;;;;;;;3.55;2.72;;;16.10;67.20;;;;;;5010872;28;20041;-74
2022/09/04 06:14:36;;;;;;;7.10;2.95;;;16.20;66.70;;;;;;5011076;28;20371;-72
2022/09/04 06:17:13;;;;;;;4.38;2.92;;;16.20;66.80;;;;;;5011021;28;20050;-73
2022/09/04 06:20:07;;;;;;;6.72;3.92;;;16.20;66.70;;;;;;5010575;28;20050;-74
2022/09/04 06:22:35;;;;;;;6.93;2.90;;;16.30;66.80;;;;;;5010912;28;20060;-74
2022/09/04 06:25:12;;;;;;;4.13;2.80;;;16.30;66.70;;;;;;4994195;28;20478;-73
2022/09/04 06:28:15;;;;;;;4.65;2.65;;;16.30;66.40;;;;;;5010618;28;20059;-75
2022/09/04 06:30:53;;;;;;;4.95;2.90;;;16.40;66.40;;;;;;5010516;28;20048;-74
2022/09/04 06:33:43;;;;;;;7.07;2.97;;;16.50;66.10;;;;;;4993678;28;20132;-75
2022/09/04 06:36:30;;;;;;;4.63;2.33;;;16.50;66.10;;;;;;5010192;28;20062;-73
2022/09/04 06:39:10;;;;;;;3.45;2.65;;;16.60;65.80;;;;;;5010364;28;20550;-75
2022/09/04 06:41:57;;;;;;;4.97;3.05;;;16.70;65.70;;;;;;4994028;28;20037;-76
2022/09/04 06:44:56;;;;;;;5.05;3.00;;;16.70;65.50;;;;;;5010192;28;20042;-73
2022/09/04 06:47:40;;;;;;;4.45;2.53;;;16.80;65.40;;;;;;5010578;28;20098;-74
2022/09/04 06:50:21;;;;;;;4.53;2.92;;;16.90;65.30;;;;;;5010484;28;20495;-75
2022/09/04 06:52:50;;;;;;;4.68;2.65;;;17.00;65.50;;;;;;5010245;28;20045;-74
2022/09/04 06:55:32;;;;;;;4.95;2.70;;;17.00;65.30;;;;;;5010383;28;20045;-75
2022/09/04 06:58:01;;;;;;;4.82;2.92;;;17.10;65.20;;;;;;5010425;28;20129;-73
2022/09/04 07:00:34;;;;;;;3.58;2.53;;;17.20;65.40;;;;;;5010272;28;20371;-74
2022/09/04 07:03:31;;;;;;;4.25;2.92;;;17.30;65.20;;;;;;5010140;28;20060;-74
2022/09/04 07:06:19;;;;;;;4.15;2.47;;;17.40;65.30;;;;;;5010224;28;20073;-74
2022/09/04 07:09:03;;;;;;;4.25;2.88;;;17.50;65.00;;;;;;5012547;28;20046;-74
2022/09/04 07:11:43;;;;;;;3.13;2.75;;;17.50;65.10;;;;;;5006744;28;20080;-73
2022/09/04 07:14:44;;;;;;;5.20;2.40;;;17.70;64.90;;;;;;5006702;28;20466;-74
2022/09/04 07:17:12;;;;;;;6.75;2.85;;;17.70;64.90;;;;;;4990295;28;20049;-76
2022/09/04 07:20:14;;;;;;;4.80;2.50;;;17.90;64.50;;;;;;4990085;28;20055;-74
2022/09/04 07:23:14;;;;;;;6.68;2.90;;;18.00;64.80;;;;;;4990566;28;20050;-75
2022/09/04 07:25:48;;;;;;;6.78;2.83;;;18.00;64.10;;;;;;4990377;28;20054;-75
2022/09/04 07:28:35;;;;;;;5.43;2.95;;;18.10;63.90;;;;;;4991539;28;20046;-75
2022/09/04 07:31:14;;;;;;;5.65;2.67;;;18.10;63.50;;;;;;5007083;28;20050;-76
2022/09/04 07:34:17;;;;;;;5.68;2.80;;;18.20;63.50;;;;;;4997283;28;20045;-74
2022/09/04 07:37:00;;;;;;;6.10;3.00;;;18.20;63.60;;;;;;5009629;28;20058;-73
2022/09/04 07:39:53;;;;;;;4.15;2.72;;;18.40;63.40;;;;;;5009774;28;20046;-72
2022/09/04 07:42:31;;;;;;;7.68;2.75;;;18.50;63.60;;;;;;4993384;28;20119;-73
2022/09/04 07:45:05;;;;;;;4.75;3.05;;;18.50;63.30;;;;;;5009278;28;20087;-75
2022/09/04 07:47:45;;;;;;;5.07;3.40;;;18.50;63.20;;;;;;5009390;28;20038;-75
2022/09/04 07:50:22;;;;;;;8.70;3.40;;;18.60;63.20;;;;;;5009312;28;20053;-75
2022/09/04 07:53:18;;;;;;;8.15;3.30;;;18.70;63.30;;;;;;4993130;28;20034;-75
2022/09/04 07:56:11;;;;;;;7.35;3.10;;;18.90;63.00;;;;;;4993270;28;20393;-73
2022/09/04 07:58:57;;;;;;;4.07;3.00;;;18.90;62.60;;;;;;5010224;28;20406;-74
2022/09/04 08:01:41;;;;;;;5.63;3.72;;;19.10;62.60;;;;;;4992996;28;20445;-74
2022/09/04 08:04:12;;;;;;;6.28;3.40;;;19.30;62.40;;;;;;5009221;28;20083;-74
2022/09/04 08:06:49;;;;;;;8.07;3.72;;;19.40;62.20;;;;;;5009153;28;20100;-74
2022/09/04 08:09:33;;;;;;;5.90;3.17;;;19.50;62.00;;;;;;5009097;28;20042;-75
2022/09/04 08:12:24;;;;;;;4.78;3.13;;;19.60;62.10;;;;;;5009106;28;20038;-75
2022/09/04 08:15:23;;;;;;;4.78;2.95;;;19.70;61.70;;;;;;5009053;28;20056;-75
2022/09/04 08:18:07;;;;;;;5.05;3.15;;;19.90;61.50;;;;;;4992732;28;20042;-75
2022/09/04 08:21:00;;;;;;;6.28;3.00;;;20.00;61.00;;;;;;4992614;28;20085;-74
2022/09/04 08:23:57;;;;;;;5.57;3.47;;;20.10;60.70;;;;;;5009326;28;20127;-75
2022/09/04 08:26:48;;;;;;;4.07;2.53;;;20.20;60.80;;;;;;5008917;28;20052;-75
2022/09/04 08:29:38;;;;;;;3.28;2.90;;;20.40;61.00;;;;;;5009149;28;20042;-74
2022/09/04 08:32:42;;;;;;;3.75;3.38;;;20.50;60.20;;;;;;5008889;28;20038;-76
2022/09/04 08:35:33;;;;;;;3.50;2.75;;;20.60;60.10;;;;;;4992334;28;20115;-75
2022/09/04 08:38:23;;;;;;;5.53;3.03;;;20.70;60.10;;;;;;5008827;28;20050;-75
2022/09/04 08:41:27;;;;;;;6.43;3.60;;;20.90;59.30;;;;;;4992457;28;20047;-75
2022/09/04 08:44:17;;;;;;;6.88;3.75;;;20.90;59.60;;;;;;5008629;28;20046;-76
2022/09/04 08:47:11;;;;;;;6.55;3.00;;;21.00;58.90;;;;;;5009027;28;20489;-75
2022/09/04 08:50:08;;;;;;;6.33;2.87;;;21.20;59.30;;;;;;5008899;28;20049;-74
2022/09/04 08:53:03;;;;;;;6.70;3.65;;;21.40;59.00;;;;;;5008741;28;20965;-75
2022/09/04 08:55:35;;;;;;;4.18;2.83;;;21.40;57.60;;;;;;4992345;28;20485;-76
2022/09/04 08:58:46;;;;;;;5.05;2.97;;;21.50;58.50;;;;;;5010948;28;20067;-75
2022/09/04 09:01:38;;;;;;;4.43;2.78;;;21.60;58.70;;;;;;4995674;28;20085;-77
2022/09/04 09:04:10;;;;;;;4.85;3.20;;;21.70;58.60;;;;;;4995591;28;20400;-78
2022/09/04 09:06:39;;;;;;;4.80;2.75;;;21.90;58.40;;;;;;5011890;28;20045;-76
2022/09/04 09:09:25;;;;;;;4.20;3.05;;;21.90;58.30;;;;;;5011988;28;20363;-78
2022/09/04 09:12:03;;;;;;;5.40;3.25;;;22.00;58.10;;;;;;5012123;28;20041;-76
2022/09/04 09:14:55;;;;;;;3.53;3.03;;;22.10;57.90;;;;;;5011788;28;20042;-78
2022/09/04 09:17:59;;;;;;;3.92;2.70;;;22.30;57.80;;;;;;5032705;28;20053;-77
2022/09/04 09:20:45;;;;;;;5.85;2.65;;;22.40;57.10;;;;;;5020057;28;20509;-75
2022/09/04 09:23:40;;;;;;;6.18;3.15;;;22.60;57.10;;;;;;5011779;28;20051;-76
2022/09/04 09:26:27;;;;;;;5.95;2.90;;;22.60;56.70;;;;;;5031923;28;20071;-78
2022/09/04 09:29:15;;;;;;;4.95;2.92;;;22.80;56.70;;;;;;5011780;28;20034;-78
2022/09/04 09:32:23;;;;;;;7.45;2.92;;;22.90;56.20;;;;;;4995298;28;20042;-77
2022/09/04 09:35:30;;;;;;;4.70;2.92;;;23.00;56.10;;;;;;5011345;28;20057;-77
2022/09/04 09:38:34;;;;;;;7.90;3.70;;;23.20;56.60;;;;;;5011398;28;20046;-78
2022/09/04 09:41:41;;;;;;;6.68;2.50;;;23.40;55.90;;;;;;5012204;28;20397;-77
2022/09/04 09:44:32;;;;;;;5.30;2.80;;;23.50;55.70;;;;;;5036614;28;20048;-77
2022/09/04 09:47:22;;;;;;;4.07;2.65;;;23.60;54.90;;;;;;5036483;28;20037;-76
2022/09/04 09:50:35;;;;;;;4.13;2.85;;;23.70;54.80;;;;;;5015838;28;20133;-76
2022/09/04 09:53:37;;;;;;;4.82;2.55;;;23.70;54.10;;;;;;5039734;28;20119;-75
2022/09/04 09:56:29;;;;;;;2.70;2.30;;;23.80;53.90;;;;;;5011208;28;20052;-76
2022/09/04 09:59:08;;;;;;;3.40;2.38;;;23.90;53.80;;;;;;5011000;28;20490;-75
2022/09/04 10:01:57;;;;;;;4.40;2.60;;;24.00;54.20;;;;;;4994815;28;20071;-76
2022/09/04 10:04:47;;;;;;;5.13;2.45;;;24.20;54.30;;;;;;5022079;28;20085;-76
2022/09/04 10:07:32;;;;;;;5.50;2.72;;;24.30;53.40;;;;;;5010974;28;20042;-77
2022/09/04 10:10:23;;;;;;;3.40;2.33;;;24.30;53.00;;;;;;5009847;28;20042;-76
2022/09/04 10:12:58;;;;;;;2.67;2.38;;;24.30;53.30;;;;;;4994382;28;20048;-76
2022/09/04 10:15:58;;;;;;;4.22;2.15;;;24.40;53.10;;;;;;5010755;28;20038;-76
2022/09/04 10:18:49;;;;;;;3.25;1.85;;;24.50;53.00;;;;;;4994653;28;20045;-77
2022/09/04 10:21:23;;;;;;;4.18;2.15;;;24.60;52.70;;;;;;5010974;28;20389;-77
2022/09/04 10:24:04;;;;;;;3.25;2.20;;;24.80;52.90;;;;;;4994319;28;20122;-76
2022/09/04 10:27:07;;;;;;;4.60;2.50;;;25.00;52.70;;;;;;5010690;28;20120;-77
2022/09/04 10:29:57;;;;;;;4.15;2.58;;;25.20;52.00;;;;;;5010538;28;20056;-77
2022/09/04 10:32:58;;;;;;;4.90;2.80;;;25.40;51.80;;;;;;5010569;28;20045;-78
2022/09/04 10:35:31;;;;;;;3.55;3.00;;;25.40;49.60;;;;;;5010263;28;20521;-77
2022/09/04 10:38:03;;;;;;;6.18;2.40;;;25.40;50.90;;;;;;5010670;28;20056;-77
2022/09/04 10:41:07;;;;;;;5.28;2.60;;;25.50;50.50;;;;;;5010626;28;20046;-77
2022/09/04 10:43:51;;;;;;;4.43;2.08;;;25.60;50.50;;;;;;4993990;28;20542;-77
2022/09/04 10:46:25;;;;;;;4.07;2.10;;;25.70;49.90;;;;;;5010230;28;20075;-77
2022/09/04 10:48:59;;;;;;;4.28;2.40;;;25.70;49.90;;;;;;5010577;28;20402;-77
2022/09/04 10:51:40;;;;;;;3.90;2.38;;;25.90;50.10;;;;;;5010308;28;20042;-78
2022/09/04 10:54:39;;;;;;;4.40;2.17;;;26.00;50.60;;;;;;5010338;28;20132;-77
2022/09/04 10:57:41;;;;;;;2.83;2.47;;;26.20;49.20;;;;;;4993805;28;20489;-78
2022/09/04 11:00:36;;;;;;;4.13;2.25;;;26.20;48.40;;;;;;5010270;28;20393;-77
2022/09/04 11:03:44;;;;;;;4.10;2.20;;;26.40;48.30;;;;;;5014387;28;20058;-78
2022/09/04 11:06:25;;;;;;;2.55;2.35;;;26.40;48.30;;;;;;5014911;28;20561;-78
2022/09/04 11:09:27;;;;;;;4.13;2.03;;;26.50;48.50;;;;;;5009733;28;20039;-78
2022/09/04 11:12:40;;;;;;;4.40;2.10;;;26.60;48.10;;;;;;5010118;28;20125;-77
2022/09/04 11:15:31;;;;;;;3.53;2.55;;;26.90;47.70;;;;;;5034945;28;20528;-79
2022/09/04 11:18:12;;;;;;;7.10;2.25;;;27.00;47.60;;;;;;5010965;28;20049;-78
2022/09/04 11:20:38;;;;;;;3.10;2.30;;;27.10;47.10;;;;;;5009653;28;20161;-79
2022/09/04 11:23:48;;;;;;;4.82;2.20;;;27.20;47.20;;;;;;5010058;28;20053;-78
2022/09/04 11:26:46;;;;;;;2.10;1.90;;;27.30;46.90;;;;;;5009967;28;20070;-78
2022/09/04 11:29:14;;;;;;;3.67;2.17;;;27.30;46.70;;;;;;5009611;28;20038;-79
2022/09/04 11:31:49;;;;;;;2.35;1.92;;;27.40;46.90;;;;;;5009623;28;20046;-77
2022/09/04 11:34:34;;;;;;;2.85;2.10;;;27.40;46.20;;;;;;5009479;28;20075;-77
2022/09/04 11:37:37;;;;;;;3.80;2.20;;;27.50;45.70;;;;;;5009442;28;20133;-78
2022/09/04 11:40:31;;;;;;;3.03;2.33;;;27.50;46.50;;;;;;5009415;28;20048;-78
2022/09/04 11:43:29;;;;;;;3.13;2.23;;;27.60;47.30;;;;;;5010041;28;20046;-77
2022/09/04 11:46:12;;;;;;;3.75;2.70;;;27.50;45.10;;;;;;5009710;28;20072;-77
2022/09/04 11:48:52;;;;;;;;;;;27.40;46.30;;;;;;5009904;28;20045;-77
2022/09/04 11:51:35;;;;;;;9.43;5.00;;;27.30;46.20;;;;;;4993104;28;19918;-77
2022/09/04 11:54:14;;;;;;;3.88;2.10;;;27.20;47.00;;;;;;5009469;28;20124;-79
2022/09/04 11:57:15;;;;;;;2.17;1.85;;;27.20;47.30;;;;;;5009533;28;20081;-79
2022/09/04 12:00:06;;;;;;;3.80;2.00;;;27.20;46.60;;;;;;5008765;28;20046;-79
2022/09/04 12:03:10;;;;;;;2.67;1.85;;;27.30;46.80;;;;;;5011440;28;20532;-78
2022/09/04 12:06:06;;;;;;;5.53;2.30;;;27.30;46.20;;;;;;4992924;28;20081;-78
2022/09/04 12:09:04;;;;;;;3.58;2.00;;;27.30;46.40;;;;;;4992479;28;20041;-77
2022/09/04 12:11:33;;;;;;;2.25;1.83;;;27.40;46.90;;;;;;4993064;28;20046;-78
2022/09/04 12:14:20;;;;;;;2.47;1.90;;;27.40;46.20;;;;;;5009102;28;20038;-77
2022/09/04 12:17:17;;;;;;;2.20;1.60;;;27.40;46.30;;;;;;5009477;28;20099;-78
2022/09/04 12:20:13;;;;;;;2.63;1.85;;;27.40;46.50;;;;;;5009613;28;20078;-78
2022/09/04 12:23:07;;;;;;;3.10;1.77;;;27.60;46.50;;;;;;4993407;28;20138;-78
2022/09/04 12:25:45;;;;;;;;;;;27.70;46.00;;;;;;4993390;28;20481;-78
2022/09/04 12:28:17;;;;;;;2.65;1.80;;;27.60;45.00;;;;;;5008940;28;20010;-78
2022/09/04 12:30:43;;;;;;;8.32;6.30;;;27.60;45.90;;;;;;5008739;28;20049;-77
2022/09/04 12:33:27;;;;;;;3.95;1.92;;;27.60;46.10;;;;;;5011448;28;20045;-78
2022/09/04 12:36:18;;;;;;;2.30;2.00;;;27.90;46.50;;;;;;5012216;28;20058;-78
2022/09/04 12:38:54;;;;;;;3.17;1.60;;;28.30;46.00;;;;;;5012285;28;20050;-79
2022/09/04 12:41:58;;;;;;;3.88;2.10;;;28.40;45.00;;;;;;5012595;28;20037;-81
2022/09/04 12:44:54;;;;;;;2.72;1.60;;;28.50;44.30;;;;;;5037594;28;20608;-79
2022/09/04 12:47:44;;;;;;;3.97;2.00;;;28.70;44.80;;;;;;5012125;28;20077;-78
2022/09/04 12:50:37;;;;;;;2.47;1.90;;;28.70;44.30;;;;;;5018845;28;20095;-78
2022/09/04 12:53:15;;;;;;;2.15;1.77;;;28.90;44.40;;;;;;5012166;28;20040;-79
2022/09/04 12:56:04;;;;;;;3.60;1.92;;;29.10;44.40;;;;;;4995726;28;20076;-79
2022/09/04 12:59:06;;;;;;;4.00;1.77;;;29.00;43.50;;;;;;5012161;28;20046;-78
2022/09/04 13:01:47;;;;;;;2.08;1.83;;;29.10;43.30;;;;;;5007252;28;20133;-80
2022/09/04 13:04:37;;;;;;;3.38;2.17;;;29.20;43.60;;;;;;5011907;28;20042;-79
2022/09/04 13:07:30;;;;;;;5.88;2.15;;;29.10;43.30;;;;;;5011836;28;20037;-79
2022/09/04 13:10:34;;;;;;;5.50;2.00;;;29.10;43.50;;;;;;5011783;28;20045;-79
2022/09/04 13:13:09;;;;;;;;;;;29.00;43.70;;;;;;5020890;28;20485;-79
2022/09/04 13:16:05;;;;;;;3.80;1.90;;;28.90;43.30;;;;;;5011697;28;19918;-79
2022/09/04 13:18:43;;;;;;;2.25;1.58;;;28.90;44.40;;;;;;5013111;28;20063;-79
2022/09/04 13:21:34;;;;;;;4.93;1.77;;;29.00;43.90;;;;;;5012134;28;20034;-79
2022/09/04 13:24:25;;;;;;;2.63;1.88;;;29.10;43.50;;;;;;5011831;28;20394;-78
2022/09/04 13:27:33;;;;;;;4.20;1.80;;;29.40;43.60;;;;;;5011615;28;20045;-79
2022/09/04 13:30:17;;;;;;;3.40;1.90;;;29.50;42.30;;;;;;5003666;28;20057;-79
2022/09/04 13:33:04;;;;;;;2.47;1.60;;;29.50;42.90;;;;;;5011601;28;20107;-78
2022/09/04 13:35:52;;;;;;;1.85;1.67;;;29.40;42.90;;;;;;5011290;28;20058;-80
2022/09/04 13:38:50;;;;;;;1.80;1.70;;;29.60;43.90;;;;;;5011417;28;20045;-80
2022/09/04 13:41:28;;;;;;;3.10;1.70;;;29.80;42.70;;;;;;5013924;28;20513;-78
2022/09/04 13:43:54;;;;;;;3.38;1.83;;;29.80;42.40;;;;;;5011049;28;20486;-80
2022/09/04 13:46:28;;;;;;;2.60;1.98;;;29.80;42.40;;;;;;5011551;28;20042;-78
2022/09/04 13:49:11;;;;;;;2.25;1.70;;;29.90;42.10;;;;;;5011246;28;20038;-79
2022/09/04 13:51:44;;;;;;;3.90;2.00;;;30.00;42.00;;;;;;5011187;28;20053;-80
2022/09/04 13:54:24;;;;;;;2.15;1.92;;;30.10;42.50;;;;;;4994900;28;20566;-80
2022/09/04 13:56:57;;;;;;;2.10;1.70;;;30.00;41.40;;;;;;4995133;28;20061;-79
2022/09/04 13:59:23;;;;;;;3.97;1.77;;;30.00;42.30;;;;;;5011102;28;20049;-79
2022/09/04 14:01:53;;;;;;;2.28;2.05;;;30.10;41.90;;;;;;5011117;28;20049;-80
2022/09/04 14:04:32;;;;;;;4.60;1.90;;;30.20;41.80;;;;;;5010974;28;20046;-80
2022/09/04 14:07:06;;;;;;;2.25;1.73;;;30.30;41.20;;;;;;5011398;28;20061;-79
2022/09/04 14:09:46;;;;;;;2.28;1.80;;;30.30;41.40;;;;;;4995045;28;20082;-79
2022/09/04 14:12:34;;;;;;;3.45;1.77;;;30.10;41.30;;;;;;5010916;28;20042;-80
2022/09/04 14:15:18;;;;;;;3.55;1.90;;;30.10;41.70;;;;;;4994960;28;20049;-79
2022/09/04 14:18:12;;;;;;;3.25;2.38;;;30.00;42.30;;;;;;4995283;28;20509;-78
2022/09/04 14:20:56;;;;;;;5.28;2.20;;;30.10;42.10;;;;;;5011704;28;20046;-79
2022/09/04 14:23:41;;;;;;;2.55;2.35;;;30.20;42.20;;;;;;4994585;28;20091;-80
2022/09/04 14:26:39;;;;;;;4.88;2.10;;;30.40;41.70;;;;;;5010928;28;20420;-80
2022/09/04 14:29:26;;;;;;;2.58;1.90;;;30.50;40.90;;;;;;5010550;28;20042;-79